sensor_id;sensor_type;location;lat;lon;timestamp;pressure;altitude;pressure_sealevel;temperature;humidity
73870;BME280;64924;42.140;24.762;2023-06-04T00:01:29;99707.59;;;20.18;51.39
73870;BME280;64924;42.140;24.762;2023-06-04T00:03:54;99713.94;;;20.18;50.98
73870;BME280;64924;42.140;24.762;2023-06-04T00:06:20;99734.22;;;20.29;50.87
73870;BME280;64924;42.140;24.762;2023-06-04T00:08:45;99748.00;;;20.29;50.94
73870;BME280;64924;42.140;24.762;2023-06-04T00:11:11;99703.81;;;20.02;50.78
73870;BME280;64924;42.140;24.762;2023-06-04T00:13:36;99725.09;;;20.07;51.20
73870;BME280;64924;42.140;24.762;2023-06-04T00:16:02;99718.28;;;20.14;50.73
73870;BME280;64924;42.140;24.762;2023-06-04T00:18:27;99753.91;;;20.16;51.19
73870;BME280;64924;42.140;24.762;2023-06-04T00:20:53;99733.56;;;20.22;51.28
73870;BME280;64924;42.140;24.762;2023-06-04T00:23:18;99734.91;;;20.19;51.31
73870;BME280;64924;42.140;24.762;2023-06-04T00:25:43;99736.78;;;20.14;51.45
73870;BME280;64924;42.140;24.762;2023-06-04T00:28:09;99738.53;;;19.98;51.93
73870;BME280;64924;42.140;24.762;2023-06-04T00:30:34;99738.84;;;20.01;52.18
73870;BME280;64924;42.140;24.762;2023-06-04T00:33:00;99753.25;;;20.09;52.32
73870;BME280;64924;42.140;24.762;2023-06-04T00:35:26;99735.84;;;20.03;52.27
73870;BME280;64924;42.140;24.762;2023-06-04T00:37:51;99736.66;;;20.03;52.56
73870;BME280;64924;42.140;24.762;2023-06-04T00:40:17;99729.41;;;19.97;52.74
73870;BME280;64924;42.140;24.762;2023-06-04T00:42:44;99713.88;;;19.91;52.88
73870;BME280;64924;42.140;24.762;2023-06-04T00:45:10;99694.09;;;19.78;53.00
73870;BME280;64924;42.140;24.762;2023-06-04T00:47:36;99744.47;;;20.12;53.10
73870;BME280;64924;42.140;24.762;2023-06-04T00:50:02;99745.50;;;20.06;53.28
73870;BME280;64924;42.140;24.762;2023-06-04T00:52:28;99734.09;;;19.97;53.38
73870;BME280;64924;42.140;24.762;2023-06-04T00:54:53;99758.16;;;20.01;53.81
73870;BME280;64924;42.140;24.762;2023-06-04T00:57:22;99741.03;;;19.99;53.95
73870;BME280;64924;42.140;24.762;2023-06-04T00:59:48;99735.00;;;20.02;53.52
73870;BME280;64924;42.140;24.762;2023-06-04T01:02:18;99745.25;;;20.29;53.28
73870;BME280;64924;42.140;24.762;2023-06-04T01:07:26;99747.75;;;20.30;53.02
73870;BME280;64924;42.140;24.762;2023-06-04T01:09:56;99746.53;;;20.43;52.96
73870;BME280;64924;42.140;24.762;2023-06-04T01:12:22;99740.72;;;20.40;53.01
73870;BME280;64924;42.140;24.762;2023-06-04T01:14:47;99751.09;;;20.32;52.93
73870;BME280;64924;42.140;24.762;2023-06-04T01:17:20;99752.38;;;20.47;52.71
73870;BME280;64924;42.140;24.762;2023-06-04T01:25:33;99762.38;;;20.75;52.17
73870;BME280;64924;42.140;24.762;2023-06-04T01:28:01;99756.53;;;20.71;51.96
73870;BME280;64924;42.140;24.762;2023-06-04T01:30:31;99754.88;;;20.70;52.18
73870;BME280;64924;42.140;24.762;2023-06-04T01:33:01;99715.94;;;20.45;52.41
73870;BME280;64924;42.140;24.762;2023-06-04T01:35:28;99747.38;;;20.65;52.20
73870;BME280;64924;42.140;24.762;2023-06-04T01:37:54;99751.16;;;20.59;52.34
73870;BME280;64924;42.140;24.762;2023-06-04T01:40:20;99763.88;;;20.60;52.30
73870;BME280;64924;42.140;24.762;2023-06-04T01:42:46;99752.88;;;20.65;52.30
73870;BME280;64924;42.140;24.762;2023-06-04T01:45:12;99741.91;;;20.49;52.41
73870;BME280;64924;42.140;24.762;2023-06-04T01:47:37;99747.88;;;20.62;51.96
73870;BME280;64924;42.140;24.762;2023-06-04T01:50:05;99711.50;;;20.44;52.00
73870;BME280;64924;42.140;24.762;2023-06-04T01:52:35;99752.69;;;20.72;52.01
73870;BME280;64924;42.140;24.762;2023-06-04T01:55:05;99746.84;;;20.68;52.10
73870;BME280;64924;42.140;24.762;2023-06-04T01:57:33;99759.09;;;20.78;51.76
73870;BME280;64924;42.140;24.762;2023-06-04T01:59:58;99761.59;;;20.79;51.84
73870;BME280;64924;42.140;24.762;2023-06-04T02:02:24;99758.56;;;20.81;51.98
73870;BME280;64924;42.140;24.762;2023-06-04T02:04:50;99761.53;;;20.74;52.50
73870;BME280;64924;42.140;24.762;2023-06-04T02:07:18;99763.53;;;20.79;52.53
73870;BME280;64924;42.140;24.762;2023-06-04T02:09:49;99770.34;;;20.98;51.99
73870;BME280;64924;42.140;24.762;2023-06-04T02:12:15;99759.81;;;20.95;51.93
73870;BME280;64924;42.140;24.762;2023-06-04T02:14:41;99773.09;;;20.98;52.19
73870;BME280;64924;42.140;24.762;2023-06-04T02:17:07;99771.69;;;20.95;51.92
73870;BME280;64924;42.140;24.762;2023-06-04T02:19:39;99746.97;;;20.79;52.12
73870;BME280;64924;42.140;24.762;2023-06-04T02:22:05;99784.00;;;21.10;51.81
73870;BME280;64924;42.140;24.762;2023-06-04T02:24:32;99777.63;;;21.09;51.91
73870;BME280;64924;42.140;24.762;2023-06-04T02:26:57;99781.38;;;20.98;51.84
73870;BME280;64924;42.140;24.762;2023-06-04T02:29:22;99781.75;;;21.07;51.77
73870;BME280;64924;42.140;24.762;2023-06-04T02:31:48;99790.13;;;20.90;52.13
73870;BME280;64924;42.140;24.762;2023-06-04T02:34:13;99788.53;;;20.94;52.10
73870;BME280;64924;42.140;24.762;2023-06-04T02:36:39;99779.94;;;20.90;51.73
73870;BME280;64924;42.140;24.762;2023-06-04T02:39:04;99750.63;;;20.62;51.93
73870;BME280;64924;42.140;24.762;2023-06-04T02:41:30;99789.50;;;20.83;51.74
73870;BME280;64924;42.140;24.762;2023-06-04T02:43:56;99791.75;;;20.86;51.86
73870;BME280;64924;42.140;24.762;2023-06-04T02:46:21;99797.22;;;20.81;52.25
73870;BME280;64924;42.140;24.762;2023-06-04T02:48:47;99756.88;;;20.53;52.24
73870;BME280;64924;42.140;24.762;2023-06-04T02:51:12;99802.59;;;20.65;52.69
73870;BME280;64924;42.140;24.762;2023-06-04T02:53:38;99773.50;;;20.36;52.71
73870;BME280;64924;42.140;24.762;2023-06-04T02:56:04;99776.19;;;20.31;52.96
73870;BME280;64924;42.140;24.762;2023-06-04T02:58:29;99806.44;;;20.43;53.11
73870;BME280;64924;42.140;24.762;2023-06-04T03:00:56;99810.47;;;20.35;53.44
73870;BME280;64924;42.140;24.762;2023-06-04T03:03:22;99816.13;;;20.45;53.57
73870;BME280;64924;42.140;24.762;2023-06-04T03:05:47;99825.94;;;20.58;53.49
73870;BME280;64924;42.140;24.762;2023-06-04T03:08:13;99782.28;;;20.33;53.14
73870;BME280;64924;42.140;24.762;2023-06-04T03:10:38;99818.06;;;20.66;52.92
73870;BME280;64924;42.140;24.762;2023-06-04T03:13:04;99817.59;;;20.75;52.60
73870;BME280;64924;42.140;24.762;2023-06-04T03:15:30;99823.72;;;20.77;52.79
73870;BME280;64924;42.140;24.762;2023-06-04T03:17:55;99817.13;;;20.83;52.28
73870;BME280;64924;42.140;24.762;2023-06-04T03:20:22;99827.56;;;20.76;52.56
73870;BME280;64924;42.140;24.762;2023-06-04T03:22:50;99745.72;;;20.43;52.43
73870;BME280;64924;42.140;24.762;2023-06-04T03:25:16;99822.34;;;20.79;52.46
73870;BME280;64924;42.140;24.762;2023-06-04T03:27:41;99837.50;;;20.77;52.79
73870;BME280;64924;42.140;24.762;2023-06-04T03:30:07;99824.81;;;20.76;52.43
73870;BME280;64924;42.140;24.762;2023-06-04T03:32:33;99837.09;;;20.90;52.44
73870;BME280;64924;42.140;24.762;2023-06-04T03:35:00;99830.41;;;20.86;52.23
73870;BME280;64924;42.140;24.762;2023-06-04T03:37:25;99825.91;;;20.80;52.59
73870;BME280;64924;42.140;24.762;2023-06-04T03:39:52;99839.22;;;20.83;52.34
73870;BME280;64924;42.140;24.762;2023-06-04T03:42:17;99838.03;;;21.00;52.33
73870;BME280;64924;42.140;24.762;2023-06-04T03:44:43;99846.78;;;21.14;51.75
73870;BME280;64924;42.140;24.762;2023-06-04T03:47:09;99847.41;;;21.21;51.48
73870;BME280;64924;42.140;24.762;2023-06-04T03:49:35;99847.03;;;21.40;51.03
73870;BME280;64924;42.140;24.762;2023-06-04T03:52:00;99848.25;;;21.49;50.74
73870;BME280;64924;42.140;24.762;2023-06-04T03:54:26;99841.91;;;21.53;50.45
73870;BME280;64924;42.140;24.762;2023-06-04T03:56:51;99804.38;;;21.30;50.73
73870;BME280;64924;42.140;24.762;2023-06-04T03:59:16;99832.25;;;21.56;50.17
73870;BME280;64924;42.140;24.762;2023-06-04T04:01:42;99853.72;;;21.76;50.32
73870;BME280;64924;42.140;24.762;2023-06-04T04:04:08;99850.84;;;21.65;50.25
73870;BME280;64924;42.140;24.762;2023-06-04T04:06:34;99858.22;;;21.55;50.40
73870;BME280;64924;42.140;24.762;2023-06-04T04:09:00;99854.25;;;21.41;50.55
73870;BME280;64924;42.140;24.762;2023-06-04T04:11:26;99870.88;;;21.46;50.33
73870;BME280;64924;42.140;24.762;2023-06-04T04:13:51;99832.38;;;21.12;50.55
73870;BME280;64924;42.140;24.762;2023-06-04T04:16:17;99880.69;;;21.31;50.66
73870;BME280;64924;42.140;24.762;2023-06-04T04:18:42;99883.66;;;21.25;50.99
73870;BME280;64924;42.140;24.762;2023-06-04T04:21:09;99881.72;;;21.25;50.84
73870;BME280;64924;42.140;24.762;2023-06-04T04:23:37;99842.38;;;21.18;50.74
73870;BME280;64924;42.140;24.762;2023-06-04T04:26:05;99873.69;;;21.51;50.39
73870;BME280;64924;42.140;24.762;2023-06-04T04:28:31;99871.78;;;21.56;50.13
73870;BME280;64924;42.140;24.762;2023-06-04T04:30:58;99845.44;;;21.44;50.10
73870;BME280;64924;42.140;24.762;2023-06-04T04:33:27;99881.06;;;21.72;49.79
73870;BME280;64924;42.140;24.762;2023-06-04T04:35:58;99883.31;;;21.75;50.05
73870;BME280;64924;42.140;24.762;2023-06-04T04:38:25;99882.69;;;21.68;50.07
73870;BME280;64924;42.140;24.762;2023-06-04T04:40:50;99882.84;;;21.56;50.22
73870;BME280;64924;42.140;24.762;2023-06-04T04:43:37;99865.91;;;21.48;50.39
73870;BME280;64924;42.140;24.762;2023-06-04T04:46:05;99902.47;;;21.55;50.38
73870;BME280;64924;42.140;24.762;2023-06-04T04:48:31;99897.56;;;21.62;50.22
73870;BME280;64924;42.140;24.762;2023-06-04T04:50:57;99886.03;;;21.70;49.98
73870;BME280;64924;42.140;24.762;2023-06-04T04:53:22;99901.50;;;21.71;49.96
73870;BME280;64924;42.140;24.762;2023-06-04T04:55:48;99908.28;;;21.85;49.84
73870;BME280;64924;42.140;24.762;2023-06-04T04:58:14;99875.00;;;21.75;49.66
73870;BME280;64924;42.140;24.762;2023-06-04T05:00:40;99905.63;;;22.00;49.18
73870;BME280;64924;42.140;24.762;2023-06-04T05:03:05;99906.88;;;22.15;49.29
73870;BME280;64924;42.140;24.762;2023-06-04T05:05:32;99907.91;;;22.46;48.47
73870;BME280;64924;42.140;24.762;2023-06-04T05:07:58;99888.81;;;22.96;47.16
73870;BME280;64924;42.140;24.762;2023-06-04T05:10:23;99910.00;;;23.38;46.45
73870;BME280;64924;42.140;24.762;2023-06-04T05:12:53;99901.44;;;23.55;45.78
73870;BME280;64924;42.140;24.762;2023-06-04T05:15:19;99907.03;;;23.70;45.39
73870;BME280;64924;42.140;24.762;2023-06-04T05:17:46;99906.47;;;23.83;44.95
73870;BME280;64924;42.140;24.762;2023-06-04T05:20:12;99879.84;;;23.72;44.86
73870;BME280;64924;42.140;24.762;2023-06-04T05:22:39;99889.81;;;23.73;44.97
73870;BME280;64924;42.140;24.762;2023-06-04T05:25:04;99910.88;;;23.79;45.14
73870;BME280;64924;42.140;24.762;2023-06-04T05:27:31;99919.78;;;23.71;45.35
73870;BME280;64924;42.140;24.762;2023-06-04T05:29:57;99925.81;;;23.48;45.84
73870;BME280;64924;42.140;24.762;2023-06-04T05:32:23;99921.34;;;23.26;46.11
73870;BME280;64924;42.140;24.762;2023-06-04T05:34:49;99909.34;;;23.00;46.58
73870;BME280;64924;42.140;24.762;2023-06-04T05:37:15;99923.38;;;22.84;47.13
73870;BME280;64924;42.140;24.762;2023-06-04T05:39:43;99931.72;;;22.89;47.52
73870;BME280;64924;42.140;24.762;2023-06-04T05:42:09;99932.91;;;23.13;46.75
73870;BME280;64924;42.140;24.762;2023-06-04T05:44:34;99941.03;;;23.30;46.52
73870;BME280;64924;42.140;24.762;2023-06-04T05:47:00;99926.06;;;23.41;46.33
73870;BME280;64924;42.140;24.762;2023-06-04T05:49:25;99933.34;;;23.57;46.29
73870;BME280;64924;42.140;24.762;2023-06-04T05:51:51;99927.81;;;23.62;46.08
73870;BME280;64924;42.140;24.762;2023-06-04T05:54:16;99953.38;;;23.75;46.15
73870;BME280;64924;42.140;24.762;2023-06-04T05:56:42;99946.97;;;23.84;45.70
73870;BME280;64924;42.140;24.762;2023-06-04T05:59:07;99958.66;;;23.96;45.67
73870;BME280;64924;42.140;24.762;2023-06-04T06:01:33;99967.56;;;24.09;45.49
73870;BME280;64924;42.140;24.762;2023-06-04T06:03:59;99954.75;;;24.18;45.11
73870;BME280;64924;42.140;24.762;2023-06-04T06:06:25;99922.03;;;24.10;45.16
73870;BME280;64924;42.140;24.762;2023-06-04T06:08:51;99953.69;;;24.29;44.67
73870;BME280;64924;42.140;24.762;2023-06-04T06:11:18;99953.91;;;24.22;44.80
73870;BME280;64924;42.140;24.762;2023-06-04T06:13:43;99899.25;;;23.87;45.02
73870;BME280;64924;42.140;24.762;2023-06-04T06:16:09;99950.03;;;24.23;44.85
73870;BME280;64924;42.140;24.762;2023-06-04T06:18:34;99970.03;;;24.15;45.59
73870;BME280;64924;42.140;24.762;2023-06-04T06:21:00;99966.13;;;24.21;45.43
73870;BME280;64924;42.140;24.762;2023-06-04T06:23:25;99974.78;;;24.25;44.88
73870;BME280;64924;42.140;24.762;2023-06-04T06:25:51;99974.19;;;23.97;45.60
73870;BME280;64924;42.140;24.762;2023-06-04T06:28:18;99984.47;;;23.92;45.62
73870;BME280;64924;42.140;24.762;2023-06-04T06:30:43;99971.97;;;23.89;45.81
73870;BME280;64924;42.140;24.762;2023-06-04T06:33:10;99973.09;;;23.93;45.65
73870;BME280;64924;42.140;24.762;2023-06-04T06:35:35;99973.63;;;23.95;45.51
73870;BME280;64924;42.140;24.762;2023-06-04T06:38:01;99982.78;;;23.91;45.75
73870;BME280;64924;42.140;24.762;2023-06-04T06:40:27;99938.09;;;23.72;45.81
73870;BME280;64924;42.140;24.762;2023-06-04T06:42:52;99973.63;;;23.90;45.93
73870;BME280;64924;42.140;24.762;2023-06-04T06:45:18;99944.47;;;23.83;46.02
73870;BME280;64924;42.140;24.762;2023-06-04T06:47:44;99978.66;;;24.09;45.84
73870;BME280;64924;42.140;24.762;2023-06-04T06:50:10;99985.84;;;24.15;45.65
73870;BME280;64924;42.140;24.762;2023-06-04T06:52:37;99984.44;;;23.87;46.79
73870;BME280;64924;42.140;24.762;2023-06-04T06:55:03;99978.66;;;24.09;46.55
73870;BME280;64924;42.140;24.762;2023-06-04T06:57:29;99988.66;;;24.40;45.70
73870;BME280;64924;42.140;24.762;2023-06-04T06:59:55;99978.13;;;24.37;45.40
73870;BME280;64924;42.140;24.762;2023-06-04T07:02:21;99990.28;;;24.16;46.20
73870;BME280;64924;42.140;24.762;2023-06-04T07:04:47;99989.75;;;23.98;46.38
73870;BME280;64924;42.140;24.762;2023-06-04T07:07:12;99988.59;;;23.69;46.95
73870;BME280;64924;42.140;24.762;2023-06-04T07:09:38;99937.44;;;23.45;47.21
73870;BME280;64924;42.140;24.762;2023-06-04T07:12:04;99992.47;;;23.63;47.44
73870;BME280;64924;42.140;24.762;2023-06-04T07:14:29;99998.59;;;23.70;47.73
73870;BME280;64924;42.140;24.762;2023-06-04T07:16:55;99998.88;;;23.74;47.75
73870;BME280;64924;42.140;24.762;2023-06-04T07:19:20;100005.25;;;23.79;47.23
73870;BME280;64924;42.140;24.762;2023-06-04T07:21:45;100007.72;;;23.60;47.72
73870;BME280;64924;42.140;24.762;2023-06-04T07:24:11;100011.78;;;23.38;48.49
73870;BME280;64924;42.140;24.762;2023-06-04T07:26:36;100014.66;;;23.06;49.57
73870;BME280;64924;42.140;24.762;2023-06-04T07:29:02;100025.94;;;22.89;49.99
73870;BME280;64924;42.140;24.762;2023-06-04T07:31:27;100020.97;;;22.91;50.52
73870;BME280;64924;42.140;24.762;2023-06-04T07:33:53;100017.66;;;22.94;50.62
73870;BME280;64924;42.140;24.762;2023-06-04T07:36:18;100001.00;;;22.89;50.38
73870;BME280;64924;42.140;24.762;2023-06-04T07:38:45;100028.53;;;23.11;50.38
73870;BME280;64924;42.140;24.762;2023-06-04T07:41:11;100024.41;;;23.13;50.55
73870;BME280;64924;42.140;24.762;2023-06-04T07:43:36;100026.00;;;23.04;50.76
73870;BME280;64924;42.140;24.762;2023-06-04T07:46:05;100026.84;;;23.05;51.03
73870;BME280;64924;42.140;24.762;2023-06-04T07:48:31;99999.56;;;22.81;51.42
73870;BME280;64924;42.140;24.762;2023-06-04T07:50:58;100039.25;;;22.92;51.61
73870;BME280;64924;42.140;24.762;2023-06-04T07:53:23;100026.09;;;22.40;52.86
73870;BME280;64924;42.140;24.762;2023-06-04T07:55:49;100025.16;;;22.24;53.17
73870;BME280;64924;42.140;24.762;2023-06-04T07:58:16;100031.94;;;22.44;53.19
73870;BME280;64924;42.140;24.762;2023-06-04T08:00:41;100031.78;;;22.55;53.29
73870;BME280;64924;42.140;24.762;2023-06-04T08:03:07;100037.97;;;22.73;52.97
73870;BME280;64924;42.140;24.762;2023-06-04T08:05:32;100034.59;;;22.60;52.96
73870;BME280;64924;42.140;24.762;2023-06-04T08:07:59;100037.66;;;22.27;54.25
73870;BME280;64924;42.140;24.762;2023-06-04T08:10:25;100028.75;;;22.25;54.45
73870;BME280;64924;42.140;24.762;2023-06-04T08:12:50;100043.25;;;22.37;53.89
73870;BME280;64924;42.140;24.762;2023-06-04T08:15:16;100001.78;;;21.83;54.66
73870;BME280;64924;42.140;24.762;2023-06-04T08:17:41;100053.31;;;21.94;55.14
73870;BME280;64924;42.140;24.762;2023-06-04T08:20:07;100036.03;;;22.04;55.28
73870;BME280;64924;42.140;24.762;2023-06-04T08:22:34;100023.84;;;21.78;55.22
73870;BME280;64924;42.140;24.762;2023-06-04T08:25:00;100041.31;;;22.06;55.93
73870;BME280;64924;42.140;24.762;2023-06-04T08:27:25;100039.91;;;22.35;55.86
73870;BME280;64924;42.140;24.762;2023-06-04T08:29:51;100018.97;;;22.12;54.91
73870;BME280;64924;42.140;24.762;2023-06-04T08:32:18;100041.94;;;22.13;55.63
73870;BME280;64924;42.140;24.762;2023-06-04T08:34:43;100052.06;;;22.02;55.46
73870;BME280;64924;42.140;24.762;2023-06-04T08:37:09;100047.53;;;21.96;54.82
73870;BME280;64924;42.140;24.762;2023-06-04T08:39:34;100057.81;;;22.00;53.85
73870;BME280;64924;42.140;24.762;2023-06-04T08:42:03;100030.47;;;21.77;53.26
73870;BME280;64924;42.140;24.762;2023-06-04T08:44:30;100056.94;;;21.95;53.55
73870;BME280;64924;42.140;24.762;2023-06-04T08:47:02;100050.34;;;22.28;52.17
73870;BME280;64924;42.140;24.762;2023-06-04T08:49:30;100046.75;;;22.59;50.77
73870;BME280;64924;42.140;24.762;2023-06-04T08:51:59;100012.84;;;22.79;50.89
73870;BME280;64924;42.140;24.762;2023-06-04T08:54:25;100051.53;;;22.69;52.75
73870;BME280;64924;42.140;24.762;2023-06-04T08:56:51;100053.31;;;22.48;53.49
73870;BME280;64924;42.140;24.762;2023-06-04T08:59:17;100065.69;;;22.73;52.78
73870;BME280;64924;42.140;24.762;2023-06-04T09:01:43;100047.88;;;22.58;54.35
73870;BME280;64924;42.140;24.762;2023-06-04T09:04:10;100045.09;;;22.58;54.11
73870;BME280;64924;42.140;24.762;2023-06-04T09:06:36;100052.94;;;22.72;53.53
73870;BME280;64924;42.140;24.762;2023-06-04T09:09:05;100053.72;;;22.62;53.08
73870;BME280;64924;42.140;24.762;2023-06-04T09:11:56;100050.63;;;22.90;52.31
73870;BME280;64924;42.140;24.762;2023-06-04T09:14:23;100052.06;;;22.66;50.66
73870;BME280;64924;42.140;24.762;2023-06-04T09:16:49;100053.31;;;22.80;50.81
73870;BME280;64924;42.140;24.762;2023-06-04T09:19:17;100057.97;;;23.17;50.48
73870;BME280;64924;42.140;24.762;2023-06-04T09:21:51;100044.72;;;23.29;50.33
73870;BME280;64924;42.140;24.762;2023-06-04T09:24:18;99998.59;;;23.08;49.89
73870;BME280;64924;42.140;24.762;2023-06-04T09:26:44;100052.63;;;23.57;49.98
73870;BME280;64924;42.140;24.762;2023-06-04T09:29:10;100046.88;;;23.69;49.17
73870;BME280;64924;42.140;24.762;2023-06-04T09:31:35;100041.00;;;23.60;48.69
73870;BME280;64924;42.140;24.762;2023-06-04T09:34:06;100057.41;;;23.77;49.67
73870;BME280;64924;42.140;24.762;2023-06-04T09:36:35;100052.94;;;23.66;49.63
73870;BME280;64924;42.140;24.762;2023-06-04T09:39:14;100053.00;;;23.76;49.19
73870;BME280;64924;42.140;24.762;2023-06-04T09:41:40;100045.53;;;23.92;48.47
73870;BME280;64924;42.140;24.762;2023-06-04T09:44:06;100009.66;;;23.60;48.34
73870;BME280;64924;42.140;24.762;2023-06-04T09:46:36;100054.66;;;23.87;48.16
73870;BME280;64924;42.140;24.762;2023-06-04T09:49:03;100042.41;;;23.78;48.92
73870;BME280;64924;42.140;24.762;2023-06-04T09:51:29;100048.75;;;23.58;48.54
73870;BME280;64924;42.140;24.762;2023-06-04T09:54:02;100049.66;;;23.84;47.41
73870;BME280;64924;42.140;24.762;2023-06-04T09:56:27;100045.28;;;24.04;47.78
73870;BME280;64924;42.140;24.762;2023-06-04T09:58:58;100047.00;;;24.30;46.69
73870;BME280;64924;42.140;24.762;2023-06-04T10:01:28;100047.28;;;24.39;46.47
73870;BME280;64924;42.140;24.762;2023-06-04T10:03:54;100047.53;;;24.57;45.92
73870;BME280;64924;42.140;24.762;2023-06-04T10:06:22;100046.16;;;24.80;45.49
73870;BME280;64924;42.140;24.762;2023-06-04T10:08:49;100057.78;;;25.13;44.27
73870;BME280;64924;42.140;24.762;2023-06-04T10:11:26;100049.69;;;25.21;43.91
73870;BME280;64924;42.140;24.762;2023-06-04T10:14:00;100061.69;;;25.07;44.38
73870;BME280;64924;42.140;24.762;2023-06-04T10:16:28;100055.88;;;24.57;44.80
73870;BME280;64924;42.140;24.762;2023-06-04T10:18:56;100049.22;;;24.43;44.43
73870;BME280;64924;42.140;24.762;2023-06-04T10:21:23;100036.44;;;24.52;44.34
73870;BME280;64924;42.140;24.762;2023-06-04T10:23:49;100057.00;;;24.61;43.35
73870;BME280;64924;42.140;24.762;2023-06-04T10:26:16;100042.56;;;24.49;42.49
73870;BME280;64924;42.140;24.762;2023-06-04T10:28:42;99989.22;;;24.47;41.75
73870;BME280;64924;42.140;24.762;2023-06-04T10:31:11;100034.47;;;24.83;40.68
73870;BME280;64924;42.140;24.762;2023-06-04T10:33:37;100033.94;;;24.41;41.40
73870;BME280;64924;42.140;24.762;2023-06-04T10:36:18;100044.78;;;24.47;42.06
73870;BME280;64924;42.140;24.762;2023-06-04T10:38:51;100038.94;;;24.39;43.66
73870;BME280;64924;42.140;24.762;2023-06-04T10:41:18;100022.84;;;24.41;38.74
73870;BME280;64924;42.140;24.762;2023-06-04T10:43:51;99998.91;;;24.60;41.33
73870;BME280;64924;42.140;24.762;2023-06-04T10:46:18;100031.41;;;24.80;40.10
73870;BME280;64924;42.140;24.762;2023-06-04T10:48:52;100027.50;;;25.01;39.55
73870;BME280;64924;42.140;24.762;2023-06-04T10:51:32;100031.63;;;25.14;38.30
73870;BME280;64924;42.140;24.762;2023-06-04T10:54:00;100019.44;;;24.99;43.03
73870;BME280;64924;42.140;24.762;2023-06-04T10:56:27;100024.97;;;24.94;45.18
73870;BME280;64924;42.140;24.762;2023-06-04T10:58:53;99998.38;;;24.53;47.43
73870;BME280;64924;42.140;24.762;2023-06-04T11:01:24;99984.19;;;24.54;47.56
73870;BME280;64924;42.140;24.762;2023-06-04T11:03:50;99998.06;;;24.80;47.13
73870;BME280;64924;42.140;24.762;2023-06-04T11:06:16;100016.06;;;24.92;46.18
73870;BME280;64924;42.140;24.762;2023-06-04T11:08:42;100023.38;;;24.63;48.44
73870;BME280;64924;42.140;24.762;2023-06-04T11:11:15;100008.63;;;24.67;48.01
73870;BME280;64924;42.140;24.762;2023-06-04T11:13:43;100026.16;;;24.58;45.16
73870;BME280;64924;42.140;24.762;2023-06-04T11:16:20;100029.50;;;24.50;42.16
73870;BME280;64924;42.140;24.762;2023-06-04T11:18:58;100028.09;;;24.57;41.75
73870;BME280;64924;42.140;24.762;2023-06-04T11:21:24;100020.59;;;24.53;42.64
73870;BME280;64924;42.140;24.762;2023-06-04T11:23:57;100012.28;;;24.43;43.23
73870;BME280;64924;42.140;24.762;2023-06-04T11:28:56;100022.84;;;24.30;47.02
73870;BME280;64924;42.140;24.762;2023-06-04T11:31:21;99968.09;;;24.21;45.94
73870;BME280;64924;42.140;24.762;2023-06-04T11:33:48;99985.34;;;24.43;40.66
73870;BME280;64924;42.140;24.762;2023-06-04T11:38:59;100024.13;;;24.94;43.79
73870;BME280;64924;42.140;24.762;2023-06-04T11:41:32;99985.91;;;24.35;44.21
73870;BME280;64924;42.140;24.762;2023-06-04T11:44:02;100011.41;;;24.57;44.36
73870;BME280;64924;42.140;24.762;2023-06-04T11:46:34;100018.84;;;24.92;43.61
73870;BME280;64924;42.140;24.762;2023-06-04T11:49:02;100019.97;;;24.91;45.22
73870;BME280;64924;42.140;24.762;2023-06-04T11:51:28;100019.41;;;24.89;42.23
73870;BME280;64924;42.140;24.762;2023-06-04T11:53:54;100009.44;;;24.83;41.08
73870;BME280;64924;42.140;24.762;2023-06-04T11:56:20;100013.88;;;25.05;42.36
73870;BME280;64924;42.140;24.762;2023-06-04T11:58:46;100011.81;;;25.30;41.73
73870;BME280;64924;42.140;24.762;2023-06-04T12:01:12;100018.75;;;25.38;43.08
73870;BME280;64924;42.140;24.762;2023-06-04T12:03:42;100019.59;;;25.28;41.19
73870;BME280;64924;42.140;24.762;2023-06-04T12:06:14;100012.59;;;25.41;41.45
73870;BME280;64924;42.140;24.762;2023-06-04T12:08:52;100018.38;;;25.60;41.25
73870;BME280;64924;42.140;24.762;2023-06-04T12:13:58;100016.72;;;25.59;42.45
73870;BME280;64924;42.140;24.762;2023-06-04T12:16:23;100020.22;;;25.20;43.84
73870;BME280;64924;42.140;24.762;2023-06-04T12:18:49;99988.09;;;24.53;45.28
73870;BME280;64924;42.140;24.762;2023-06-04T12:21:23;100024.47;;;24.67;45.36
73870;BME280;64924;42.140;24.762;2023-06-04T12:24:10;100038.09;;;24.84;45.00
73870;BME280;64924;42.140;24.762;2023-06-04T12:26:37;100023.63;;;24.82;44.96
73870;BME280;64924;42.140;24.762;2023-06-04T12:29:16;100028.63;;;24.85;44.93
73870;BME280;64924;42.140;24.762;2023-06-04T12:31:44;100033.94;;;24.56;45.68
73870;BME280;64924;42.140;24.762;2023-06-04T12:34:11;100030.91;;;24.42;45.81
73870;BME280;64924;42.140;24.762;2023-06-04T12:36:37;100038.41;;;24.42;45.38
73870;BME280;64924;42.140;24.762;2023-06-04T12:39:04;100030.88;;;24.32;45.87
73870;BME280;64924;42.140;24.762;2023-06-04T12:41:31;100020.88;;;24.56;45.23
73870;BME280;64924;42.140;24.762;2023-06-04T12:43:57;100026.41;;;24.87;44.21
73870;BME280;64924;42.140;24.762;2023-06-04T12:46:23;100026.91;;;25.14;43.75
73870;BME280;64924;42.140;24.762;2023-06-04T12:48:53;100012.44;;;25.17;42.63
73870;BME280;64924;42.140;24.762;2023-06-04T12:51:20;100021.91;;;25.16;42.14
73870;BME280;64924;42.140;24.762;2023-06-04T12:53:46;100022.66;;;25.27;42.61
73870;BME280;64924;42.140;24.762;2023-06-04T12:56:12;100016.78;;;25.39;42.77
73870;BME280;64924;42.140;24.762;2023-06-04T12:58:38;100029.00;;;25.48;42.73
73870;BME280;64924;42.140;24.762;2023-06-04T13:01:03;100005.88;;;25.52;42.95